createdAt,value
2023-05-05T00:02:12.264Z,98992.53
2023-05-05T00:04:38.821Z,98989.91
2023-05-05T00:07:05.294Z,98981.97
2023-05-05T00:09:31.804Z,98993.44
2023-05-05T00:11:58.290Z,98982.81
2023-05-05T00:14:24.824Z,98986.38
2023-05-05T00:16:51.379Z,98976.66
2023-05-05T00:19:17.870Z,98978.44
2023-05-05T00:21:44.327Z,98977.53
2023-05-05T00:24:11.116Z,98973.13
2023-05-05T00:26:37.650Z,98973.13
2023-05-05T00:29:04.185Z,98969.59
2023-05-05T00:31:30.683Z,98964.22
2023-05-05T00:33:57.233Z,98966.84
2023-05-05T00:36:23.749Z,98973.06
2023-05-05T00:38:50.253Z,98962.53
2023-05-05T00:41:16.702Z,98959.88
2023-05-05T00:43:43.265Z,98959.88
2023-05-05T00:46:22.332Z,98958.13
2023-05-05T00:48:48.958Z,98959.88
2023-05-05T00:51:16.855Z,98950.09
2023-05-05T00:53:45.138Z,98950.97
2023-05-05T00:56:12.889Z,98954.50
2023-05-05T00:58:42.339Z,98953.63
2023-05-05T01:01:09.398Z,98948.34
2023-05-05T01:03:38.056Z,98939.53
2023-05-05T01:06:22.566Z,98938.69
2023-05-05T01:09:08.184Z,98935.19
2023-05-05T01:11:34.599Z,98933.41
2023-05-05T01:14:16.664Z,98934.25
2023-05-05T01:16:55.986Z,98931.59
2023-05-05T01:19:49.708Z,98940.38
2023-05-05T01:22:19.970Z,98934.16
2023-05-05T01:25:05.406Z,98932.44
2023-05-05T01:28:03.035Z,98930.69
2023-05-05T01:30:57.527Z,98927.16
2023-05-05T01:33:28.776Z,98930.72
2023-05-05T01:35:58.258Z,98929.81
2023-05-05T01:38:36.454Z,98929.81
2023-05-05T01:41:17.049Z,98926.31
2023-05-05T01:43:47.039Z,98928.06
2023-05-05T01:46:15.885Z,98928.06
2023-05-05T01:48:44.096Z,98922.75
2023-05-05T01:51:12.636Z,98922.72
2023-05-05T01:53:42.591Z,98929.78
2023-05-05T01:56:10.641Z,98920.09
2023-05-05T01:58:38.137Z,98918.34
2023-05-05T02:01:05.339Z,98922.75
2023-05-05T02:03:34.014Z,98926.25
2023-05-05T02:06:01.630Z,98922.75
2023-05-05T02:08:30.010Z,98928.94
2023-05-05T02:10:57.674Z,98929.78
2023-05-05T02:13:26.102Z,98918.34
2023-05-05T02:15:53.344Z,98920.09
2023-05-05T02:18:22.252Z,98920.09
2023-05-05T02:20:48.873Z,98921.81
2023-05-05T02:23:15.477Z,98920.94
2023-05-05T02:25:45.738Z,98926.19
2023-05-05T02:28:18.439Z,98923.59
2023-05-05T02:30:59.389Z,98927.94
2023-05-05T02:33:29.063Z,98918.22
2023-05-05T02:36:00.043Z,98919.97
2023-05-05T02:38:29.331Z,98919.13
2023-05-05T02:40:57.985Z,98922.63
2023-05-05T02:43:25.889Z,98911.97
2023-05-05T02:45:52.378Z,98912.88
2023-05-05T02:48:18.927Z,98915.53
2023-05-05T02:50:45.401Z,98918.13
2023-05-05T02:53:12.307Z,98910.28
2023-05-05T02:55:45.515Z,98908.53
2023-05-05T02:58:24.840Z,98918.22
2023-05-05T03:01:18.004Z,98916.34
2023-05-05T03:03:46.893Z,98917.22
2023-05-05T03:06:21.296Z,98916.41
2023-05-05T03:08:58.062Z,98920.81
2023-05-05T03:11:35.512Z,98915.47
2023-05-05T03:14:10.088Z,98911.00
2023-05-05T03:16:39.442Z,98913.69
2023-05-05T03:19:08.569Z,98903.97
2023-05-05T03:21:35.487Z,98901.31
2023-05-05T03:24:12.242Z,98904.78
2023-05-05T03:26:38.687Z,98903.91
2023-05-05T03:29:06.865Z,98903.91
2023-05-05T03:31:33.537Z,98901.25
2023-05-05T03:34:00.279Z,98895.97
2023-05-05T03:36:29.413Z,98883.59
2023-05-05T03:38:56.196Z,98884.41
2023-05-05T03:41:23.629Z,98890.56
2023-05-05T03:43:50.910Z,98893.22
2023-05-05T03:46:17.494Z,98890.63
2023-05-05T03:48:44.054Z,98890.66
2023-05-05T03:51:10.621Z,98888.06
2023-05-05T03:53:37.047Z,98895.97
2023-05-05T03:56:03.698Z,98894.16
2023-05-05T03:58:30.951Z,98889.75
2023-05-05T04:00:57.485Z,98893.19
2023-05-05T04:03:25.477Z,98894.06
2023-05-05T04:05:52.130Z,98891.44
2023-05-05T04:08:18.585Z,98888.88
2023-05-05T04:10:48.974Z,98896.75
2023-05-05T04:13:15.565Z,98895.91
2023-05-05T04:15:48.304Z,98894.16
2023-05-05T04:18:14.775Z,98893.28
2023-05-05T04:20:41.329Z,98888.00
2023-05-05T04:23:07.975Z,98891.53
2023-05-05T04:25:34.530Z,98888.88
2023-05-05T04:28:01.109Z,98893.22
2023-05-05T04:30:27.628Z,98890.63
2023-05-05T04:32:54.125Z,98887.97
2023-05-05T04:35:21.227Z,98890.63
2023-05-05T04:37:47.775Z,98897.69
2023-05-05T04:40:14.414Z,98898.56
2023-05-05T04:42:40.891Z,98892.34
2023-05-05T04:45:08.876Z,98887.06
2023-05-05T04:47:39.523Z,98892.31
2023-05-05T04:50:07.226Z,98898.47
2023-05-05T04:52:34.155Z,98902.84
2023-05-05T04:55:01.137Z,98892.34
2023-05-05T04:57:27.851Z,98900.38
2023-05-05T04:59:54.366Z,98904.84
2023-05-05T05:02:21.035Z,98905.72
2023-05-05T05:04:47.536Z,98896.97
2023-05-05T05:07:15.085Z,98897.91
2023-05-05T05:09:41.620Z,98892.72
2023-05-05T05:12:09.694Z,98890.97
2023-05-05T05:14:43.296Z,98887.47
2023-05-05T05:17:09.929Z,98901.63
2023-05-05T05:19:36.397Z,98893.72
2023-05-05T05:22:02.914Z,98898.13
2023-05-05T05:24:29.952Z,98907.88
2023-05-05T05:26:56.474Z,98893.75
2023-05-05T05:29:23.012Z,98892.00
2023-05-05T05:31:50.165Z,98902.56
2023-05-05T05:34:16.756Z,98895.53
2023-05-05T05:36:43.234Z,98899.03
2023-05-05T05:39:09.729Z,98896.34
2023-05-05T05:41:36.219Z,98892.81
2023-05-05T05:44:05.580Z,98893.69
2023-05-05T05:46:32.133Z,98886.66
2023-05-05T05:48:58.612Z,98893.72
2023-05-05T05:51:25.101Z,98892.84
2023-05-05T05:53:51.803Z,98891.13
2023-05-05T05:56:18.387Z,98885.81
2023-05-05T05:58:45.280Z,98886.72
2023-05-05T06:01:12.134Z,98886.72
2023-05-05T06:03:38.694Z,98889.34
2023-05-05T06:06:05.308Z,98895.44
2023-05-05T06:08:31.918Z,98892.78
2023-05-05T06:11:00.411Z,98901.56
2023-05-05T06:13:26.923Z,98898.81
2023-05-05T06:15:53.493Z,98896.09
2023-05-05T06:18:20.232Z,98903.13
2023-05-05T06:20:49.486Z,98895.94
2023-05-05T06:23:16.035Z,98904.75
2023-05-05T06:25:42.534Z,98911.91
2023-05-05T06:28:09.105Z,98914.66
2023-05-05T06:30:35.569Z,98910.25
2023-05-05T06:33:02.201Z,98918.22
2023-05-05T06:35:30.264Z,98912.06
2023-05-05T06:37:56.734Z,98915.56
2023-05-05T06:40:23.331Z,98931.41
2023-05-05T06:42:49.808Z,98940.22
2023-05-05T06:45:16.601Z,98935.81
2023-05-05T06:47:44.238Z,98931.38
2023-05-05T06:50:11.336Z,98927.84
2023-05-05T06:52:37.966Z,98935.81
2023-05-05T06:55:04.743Z,98937.53
2023-05-05T06:57:31.258Z,98935.84
2023-05-05T06:59:57.850Z,98937.59
2023-05-05T07:02:26.711Z,98938.41
2023-05-05T07:04:55.298Z,98928.53
2023-05-05T07:07:21.910Z,98931.13
2023-05-05T07:09:48.338Z,98934.72
2023-05-05T07:12:14.809Z,98940.78
2023-05-05T07:14:41.281Z,98930.03
2023-05-05T07:17:07.719Z,98921.22
2023-05-05T07:19:34.197Z,98929.19
2023-05-05T07:22:00.688Z,98925.47
2023-05-05T07:24:27.172Z,98919.25
2023-05-05T07:26:53.685Z,98921.84
2023-05-05T07:29:20.234Z,98918.19
2023-05-05T07:31:46.872Z,98914.53
2023-05-05T07:34:16.159Z,98918.00
2023-05-05T07:36:42.725Z,98921.31
2023-05-05T07:39:09.288Z,98920.97
2023-05-05T07:41:35.780Z,98911.06
2023-05-05T07:44:02.357Z,98913.66
2023-05-05T07:46:28.928Z,98914.69
2023-05-05T07:48:55.588Z,98903.47
2023-05-05T07:51:22.142Z,98903.34
2023-05-05T07:53:48.665Z,98907.41
2023-05-05T07:56:15.183Z,98907.19
2023-05-05T07:58:42.240Z,98910.59
2023-05-05T08:01:10.969Z,98921.03
2023-05-05T08:03:37.862Z,98922.56
2023-05-05T08:06:09.702Z,98912.69
2023-05-05T08:08:36.816Z,98906.16
2023-05-05T08:11:04.001Z,98913.22
2023-05-05T08:13:30.755Z,98899.44
2023-05-05T08:15:57.412Z,98903.50
2023-05-05T08:18:24.554Z,98898.94
2023-05-05T08:20:51.246Z,98896.94
2023-05-05T08:23:17.810Z,98899.84
2023-05-05T08:25:44.465Z,98900.56
2023-05-05T08:28:11.357Z,98902.47
2023-05-05T08:30:38.310Z,98907.16
2023-05-05T08:33:04.784Z,98910.72
2023-05-05T08:35:31.325Z,98911.97
2023-05-05T08:37:59.290Z,98923.28
2023-05-05T08:40:32.262Z,98919.13
2023-05-05T08:42:59.230Z,98917.59
2023-05-05T08:45:28.089Z,98924.72
2023-05-05T08:48:01.156Z,98912.56
2023-05-05T08:50:29.651Z,98915.19
2023-05-05T08:53:10.967Z,98918.84
2023-05-05T08:55:56.074Z,98923.38
2023-05-05T08:58:29.130Z,98926.81
2023-05-05T09:00:56.497Z,98927.81
2023-05-05T09:03:24.842Z,98922.34
2023-05-05T09:05:51.837Z,98937.41
2023-05-05T09:08:18.689Z,98941.00
2023-05-05T09:10:46.108Z,98938.28
2023-05-05T09:13:13.187Z,98939.78
2023-05-05T09:15:41.328Z,98951.06
2023-05-05T09:18:12.316Z,98945.00
2023-05-05T09:20:40.032Z,98940.66
2023-05-05T09:23:17.569Z,98935.31
2023-05-05T09:25:46.378Z,98950.28
2023-05-05T09:28:17.673Z,98941.34
2023-05-05T09:30:46.039Z,98939.34
2023-05-05T09:33:13.540Z,98945.66
2023-05-05T09:35:50.775Z,98941.75
2023-05-05T09:38:18.651Z,98950.09
2023-05-05T09:40:47.718Z,98939.09
2023-05-05T09:43:15.244Z,98936.75
2023-05-05T09:45:41.908Z,98938.44
2023-05-05T09:48:22.764Z,98943.81
2023-05-05T09:50:49.564Z,98953.16
2023-05-05T09:53:16.126Z,98953.00
2023-05-05T09:55:52.979Z,98952.75
2023-05-05T09:58:20.721Z,98953.16
2023-05-05T10:00:47.674Z,98954.09
2023-05-05T10:03:14.525Z,98960.84
2023-05-05T10:05:51.966Z,98956.34
2023-05-05T10:08:24.508Z,98966.25
2023-05-05T10:11:01.431Z,98960.38
2023-05-05T10:13:28.108Z,98955.97
2023-05-05T10:15:56.690Z,98962.28
2023-05-05T10:18:28.528Z,98964.19
2023-05-05T10:20:54.950Z,98960.75
2023-05-05T10:23:23.947Z,98965.06
2023-05-05T10:25:55.203Z,98972.25
2023-05-05T10:28:32.993Z,98972.56
2023-05-05T10:31:07.641Z,98973.66
2023-05-05T10:33:47.784Z,98970.31
2023-05-05T10:36:14.940Z,98969.91
2023-05-05T10:38:42.976Z,98970.91
2023-05-05T10:41:11.568Z,98964.56
2023-05-05T10:43:38.586Z,98975.25
2023-05-05T10:46:06.249Z,98979.81
2023-05-05T10:48:46.088Z,98987.91
2023-05-05T10:51:39.261Z,98987.09
2023-05-05T10:54:50.427Z,98989.22
2023-05-05T10:57:22.322Z,98969.94
2023-05-05T10:59:48.741Z,98970.94
2023-05-05T11:02:22.100Z,98966.56
2023-05-05T11:05:09.314Z,98959.47
2023-05-05T11:07:36.763Z,98964.63
2023-05-05T11:10:05.665Z,98959.34
2023-05-05T11:12:53.289Z,98946.78
2023-05-05T11:15:26.036Z,98950.28
2023-05-05T11:17:53.643Z,98946.69
2023-05-05T11:20:35.905Z,98948.53
2023-05-05T11:23:02.361Z,98938.63
2023-05-05T11:25:34.673Z,98941.34
2023-05-05T11:28:11.191Z,98942.38
2023-05-05T11:30:59.366Z,98934.41
2023-05-05T11:33:26.378Z,98944.06
2023-05-05T11:36:06.144Z,98944.84
2023-05-05T11:38:36.065Z,98942.25
2023-05-05T11:41:14.431Z,98933.38
2023-05-05T11:43:41.793Z,98930.78
2023-05-05T11:46:16.142Z,98928.31
2023-05-05T11:48:49.949Z,98936.41
2023-05-05T11:51:18.099Z,98933.69
2023-05-05T11:53:47.275Z,98938.16
2023-05-05T11:56:18.962Z,98934.72
2023-05-05T11:58:46.769Z,98927.69
2023-05-05T12:01:13.598Z,98929.53
2023-05-05T12:03:41.116Z,98928.78
2023-05-05T12:06:08.600Z,98923.53
2023-05-05T12:08:39.306Z,98927.09
2023-05-05T12:11:07.692Z,98917.31
2023-05-05T12:13:34.825Z,98908.31
2023-05-05T12:16:16.586Z,98899.28
2023-05-05T12:18:43.189Z,98899.06
2023-05-05T12:21:20.125Z,98899.78
2023-05-05T12:23:46.962Z,98889.84
2023-05-05T12:26:29.679Z,98881.56
2023-05-05T12:28:57.572Z,98882.31
2023-05-05T12:31:40.349Z,98882.16
2023-05-05T12:34:08.988Z,98873.00
2023-05-05T12:36:36.635Z,98872.69
2023-05-05T12:39:05.035Z,98867.25
2023-05-05T12:41:32.339Z,98873.28
2023-05-05T12:44:00.105Z,98870.44
2023-05-05T12:46:29.574Z,98869.28
2023-05-05T12:49:06.738Z,98865.44
2023-05-05T12:51:34.671Z,98869.88
2023-05-05T12:54:11.730Z,98872.41
2023-05-05T12:56:43.992Z,98876.47
2023-05-05T12:59:12.637Z,98875.22
2023-05-05T13:01:50.912Z,98873.25
2023-05-05T13:04:19.369Z,98877.16
2023-05-05T13:06:51.744Z,98872.22
2023-05-05T13:09:28.222Z,98867.06
2023-05-05T13:11:54.831Z,98849.31
2023-05-05T13:14:21.655Z,98845.13
2023-05-05T13:16:48.499Z,98838.41
2023-05-05T13:19:15.347Z,98837.34
2023-05-05T13:21:41.900Z,98834.06
2023-05-05T13:24:23.482Z,98827.31
2023-05-05T13:26:55.854Z,98825.94
2023-05-05T13:29:24.251Z,98825.84
2023-05-05T13:31:52.692Z,98830.19
2023-05-05T13:34:19.235Z,98828.00
2023-05-05T13:36:45.899Z,98823.09
2023-05-05T13:39:12.726Z,98826.59
2023-05-05T13:41:39.402Z,98821.25
2023-05-05T13:44:05.952Z,98818.97
2023-05-05T13:46:32.653Z,98808.50
2023-05-05T13:48:59.207Z,98801.38
2023-05-05T13:51:28.491Z,98800.34
2023-05-05T13:53:55.123Z,98802.13
2023-05-05T13:56:27.524Z,98800.44
2023-05-05T13:58:54.423Z,98802.25
2023-05-05T14:01:21.105Z,98792.66
2023-05-05T14:03:47.654Z,98793.53
2023-05-05T14:06:14.105Z,98782.81
2023-05-05T14:08:40.580Z,98783.75
2023-05-05T14:11:07.023Z,98776.06
2023-05-05T14:13:33.488Z,98765.50
2023-05-05T14:15:59.952Z,98771.78
2023-05-05T14:18:26.879Z,98764.75
2023-05-05T14:20:53.449Z,98769.19
2023-05-05T14:23:19.934Z,98764.91
2023-05-05T14:25:46.504Z,98768.66
2023-05-05T14:28:12.977Z,98764.44
2023-05-05T14:30:39.903Z,98755.47
2023-05-05T14:33:06.875Z,98753.97
2023-05-05T14:35:33.430Z,98748.78
2023-05-05T14:37:59.895Z,98747.06
2023-05-05T14:40:26.417Z,98740.06
2023-05-05T14:42:52.928Z,98749.13
2023-05-05T14:45:19.441Z,98755.41
2023-05-05T14:47:45.992Z,98757.91
2023-05-05T14:50:14.037Z,98751.59
2023-05-05T14:52:40.929Z,98752.41
2023-05-05T14:55:08.111Z,98768.28
2023-05-05T14:57:34.771Z,98762.75
2023-05-05T15:00:01.446Z,98758.16
2023-05-05T15:02:27.991Z,98761.44
2023-05-05T15:04:54.534Z,98760.44
2023-05-05T15:07:22.552Z,98762.91
2023-05-05T15:09:49.122Z,98757.31
2023-05-05T15:12:15.689Z,98760.75
2023-05-05T15:14:42.216Z,98762.50
2023-05-05T15:17:08.716Z,98761.69
2023-05-05T15:19:35.218Z,98761.78
2023-05-05T15:22:01.777Z,98759.34
2023-05-05T15:24:28.281Z,98750.72
2023-05-05T15:26:54.780Z,98757.13
2023-05-05T15:29:21.495Z,98748.44
2023-05-05T15:31:48.032Z,98748.66
2023-05-05T15:34:14.502Z,98759.50
2023-05-05T15:36:40.955Z,98751.59
2023-05-05T15:39:07.565Z,98750.88
2023-05-05T15:41:34.488Z,98754.53
2023-05-05T15:44:03.077Z,98751.84
2023-05-05T15:46:33.369Z,98746.63
2023-05-05T15:49:00.309Z,98745.03
2023-05-05T15:51:27.288Z,98740.72
2023-05-05T15:53:53.832Z,98747.03
2023-05-05T15:56:20.372Z,98746.16
2023-05-05T15:58:46.865Z,98748.13
2023-05-05T16:01:13.337Z,98756.31
2023-05-05T16:03:39.939Z,98747.50
2023-05-05T16:06:06.838Z,98740.41
2023-05-05T16:08:33.339Z,98734.25
2023-05-05T16:10:59.815Z,98737.81
2023-05-05T16:13:26.670Z,98736.09
2023-05-05T16:15:53.143Z,98734.44
2023-05-05T16:18:19.642Z,98735.41
2023-05-05T16:20:48.090Z,98737.34
2023-05-05T16:23:14.601Z,98729.47
2023-05-05T16:25:41.074Z,98734.03
2023-05-05T16:28:07.512Z,98730.59
2023-05-05T16:30:34.027Z,98743.13
2023-05-05T16:33:00.570Z,98743.22
2023-05-05T16:35:27.138Z,98745.84
2023-05-05T16:37:53.687Z,98741.47
2023-05-05T16:40:20.147Z,98739.91
2023-05-05T16:42:46.655Z,98740.97
2023-05-05T16:45:13.190Z,98748.25
2023-05-05T16:47:39.798Z,98759.16
2023-05-05T16:50:07.058Z,98770.91
2023-05-05T16:52:33.622Z,98796.88
2023-05-05T16:55:00.112Z,98802.22
2023-05-05T16:57:26.957Z,98798.72
2023-05-05T16:59:56.037Z,98796.34
2023-05-05T17:02:22.751Z,98797.56
2023-05-05T17:04:49.267Z,98791.84
2023-05-05T17:07:15.771Z,98818.03
2023-05-05T17:09:42.266Z,98819.09
2023-05-05T17:12:08.809Z,98836.09
2023-05-05T17:14:35.502Z,98837.16
2023-05-05T17:17:02.048Z,98843.72
2023-05-05T17:19:28.888Z,98837.84
2023-05-05T17:21:55.676Z,98837.09
2023-05-05T17:24:22.706Z,98828.41
2023-05-05T17:26:49.281Z,98825.75
2023-05-05T17:29:19.774Z,98816.06
2023-05-05T17:31:46.640Z,98810.78
2023-05-05T17:34:16.423Z,98822.34
2023-05-05T17:36:42.903Z,98818.91
2023-05-05T17:39:11.306Z,98818.06
2023-05-05T17:41:37.822Z,98823.44
2023-05-05T17:44:07.048Z,98824.28
2023-05-05T17:46:33.535Z,98825.38
2023-05-05T17:49:00.501Z,98826.34
2023-05-05T17:51:28.253Z,98832.56
2023-05-05T17:53:54.736Z,98837.06
2023-05-05T17:56:22.112Z,98844.09
2023-05-05T17:58:48.896Z,98837.94
2023-05-05T18:01:26.024Z,98837.97
2023-05-05T18:03:52.896Z,98843.38
2023-05-05T18:06:19.460Z,98842.53
2023-05-05T18:08:46.548Z,98834.53
2023-05-05T18:11:13.076Z,98829.25
2023-05-05T18:13:39.636Z,98831.06
2023-05-05T18:16:06.682Z,98832.88
2023-05-05T18:18:33.334Z,98833.84
2023-05-05T18:21:00.179Z,98833.84
2023-05-05T18:23:26.756Z,98834.63
2023-05-05T18:25:53.249Z,98838.16
2023-05-05T18:28:20.318Z,98856.88
2023-05-05T18:30:49.696Z,98846.19
2023-05-05T18:33:16.231Z,98861.31
2023-05-05T18:35:42.736Z,98850.72
2023-05-05T18:38:09.277Z,98850.72
2023-05-05T18:40:39.585Z,98855.91
2023-05-05T18:43:06.110Z,98860.22
2023-05-05T18:45:32.605Z,98857.59
2023-05-05T18:47:59.645Z,98861.31
2023-05-05T18:50:26.105Z,98864.88
2023-05-05T18:52:52.613Z,98864.81
2023-05-05T18:55:19.141Z,98867.53
2023-05-05T18:57:45.834Z,98869.19
2023-05-05T19:00:12.637Z,98870.94
2023-05-05T19:02:39.170Z,98866.59
2023-05-05T19:05:06.421Z,98866.69
2023-05-05T19:07:35.741Z,98867.56
2023-05-05T19:10:04.326Z,98862.22
2023-05-05T19:12:30.878Z,98859.56
2023-05-05T19:14:57.439Z,98861.34
2023-05-05T19:17:23.953Z,98851.50
2023-05-05T19:19:50.681Z,98847.00
2023-05-05T19:22:21.773Z,98847.09
2023-05-05T19:24:48.248Z,98842.66
2023-05-05T19:27:16.811Z,98848.84
2023-05-05T19:29:43.910Z,98860.38
2023-05-05T19:32:10.648Z,98863.13
2023-05-05T19:34:37.320Z,98864.00
2023-05-05T19:37:03.854Z,98868.50
2023-05-05T19:39:30.296Z,98864.09
2023-05-05T19:41:57.280Z,98860.47
2023-05-05T19:44:23.870Z,98851.63
2023-05-05T19:46:50.600Z,98856.97
2023-05-05T19:49:17.074Z,98857.06
2023-05-05T19:51:43.808Z,98859.75
2023-05-05T19:54:10.362Z,98853.59
2023-05-05T19:56:36.945Z,98858.94
2023-05-05T19:59:05.280Z,98857.19
2023-05-05T20:01:33.074Z,98858.13
2023-05-05T20:04:02.572Z,98854.59
2023-05-05T20:06:30.329Z,98863.50
2023-05-05T20:08:56.788Z,98858.16
2023-05-05T20:11:24.690Z,98846.69
2023-05-05T20:13:51.746Z,98845.88
2023-05-05T20:16:18.432Z,98860.06
2023-05-05T20:18:45.282Z,98852.94
2023-05-05T20:21:17.864Z,98852.03
2023-05-05T20:23:45.869Z,98851.19
2023-05-05T20:26:13.229Z,98844.13
2023-05-05T20:28:41.879Z,98834.41
2023-05-05T20:31:10.763Z,98837.09
2023-05-05T20:33:40.554Z,98838.84
2023-05-05T20:36:07.363Z,98827.28
2023-05-05T20:38:33.908Z,98830.03
2023-05-05T20:41:00.366Z,98830.13
2023-05-05T20:43:26.969Z,98830.19
2023-05-05T20:45:53.513Z,98830.22
2023-05-05T20:48:19.957Z,98832.06
2023-05-05T20:50:51.128Z,98827.59
2023-05-05T20:53:19.124Z,98823.94
2023-05-05T20:55:45.909Z,98830.06
2023-05-05T20:58:12.645Z,98825.63
2023-05-05T21:00:39.292Z,98830.94
2023-05-05T21:03:05.977Z,98830.06
2023-05-05T21:05:32.608Z,98835.47
2023-05-05T21:08:00.799Z,98834.75
2023-05-05T21:10:29.163Z,98835.63
2023-05-05T21:12:57.790Z,98832.16
2023-05-05T21:15:24.998Z,98834.88
2023-05-05T21:17:51.711Z,98836.66
2023-05-05T21:20:21.293Z,98831.34
2023-05-05T21:22:47.792Z,98829.56
2023-05-05T21:25:17.184Z,98833.13
2023-05-05T21:27:47.266Z,98837.53
2023-05-05T21:30:14.183Z,98848.16
2023-05-05T21:32:45.289Z,98848.22
2023-05-05T21:35:11.963Z,98846.41
2023-05-05T21:37:39.177Z,98842.88
2023-05-05T21:40:13.253Z,98837.53
2023-05-05T21:42:40.974Z,98832.25
2023-05-05T21:45:08.029Z,98836.69
2023-05-05T21:47:38.175Z,98840.25
2023-05-05T21:50:05.482Z,98835.81
2023-05-05T21:52:41.387Z,98841.09
2023-05-05T21:55:10.517Z,98839.38
2023-05-05T21:57:37.018Z,98835.88
2023-05-05T22:00:05.928Z,98836.81
2023-05-05T22:02:33.589Z,98831.50
2023-05-05T22:05:00.121Z,98841.25
2023-05-05T22:07:26.627Z,98836.84
2023-05-05T22:09:53.079Z,98843.91
2023-05-05T22:12:19.544Z,98835.03
2023-05-05T22:14:46.118Z,98839.44
2023-05-05T22:17:12.798Z,98837.69
2023-05-05T22:19:42.054Z,98831.53
2023-05-05T22:22:14.350Z,98826.22
2023-05-05T22:24:44.312Z,98833.25
2023-05-05T22:27:10.771Z,98828.84
2023-05-05T22:29:37.622Z,98828.00
2023-05-05T22:32:04.124Z,98822.66
2023-05-05T22:34:30.704Z,98816.53
2023-05-05T22:37:00.398Z,98821.91
2023-05-05T22:39:27.132Z,98826.25
2023-05-05T22:41:57.566Z,98814.72
2023-05-05T22:44:27.602Z,98823.69
2023-05-05T22:46:54.113Z,98817.53
2023-05-05T22:49:21.792Z,98806.88
2023-05-05T22:51:48.530Z,98806.75
2023-05-05T22:54:15.022Z,98796.97
2023-05-05T22:56:41.461Z,98792.59
2023-05-05T22:59:10.488Z,98794.44
2023-05-05T23:01:37.588Z,98802.34
2023-05-05T23:04:04.544Z,98797.03
2023-05-05T23:06:32.150Z,98788.13
2023-05-05T23:08:58.665Z,98787.25
2023-05-05T23:11:26.357Z,98783.88
2023-05-05T23:13:53.376Z,98778.75
2023-05-05T23:16:19.892Z,98783.19
2023-05-05T23:18:46.429Z,98779.59
2023-05-05T23:21:12.903Z,98781.25
2023-05-05T23:23:42.235Z,98778.69
2023-05-05T23:26:13.150Z,98782.38
2023-05-05T23:28:42.318Z,98790.34
2023-05-05T23:31:09.162Z,98784.97
2023-05-05T23:33:35.633Z,98777.84
2023-05-05T23:36:02.127Z,98776.97
2023-05-05T23:38:28.622Z,98777.91
2023-05-05T23:40:58.020Z,98775.28
2023-05-05T23:43:24.804Z,98771.69
2023-05-05T23:45:51.547Z,98769.91
2023-05-05T23:48:18.030Z,98777.88
2023-05-05T23:50:44.470Z,98792.09
2023-05-05T23:53:10.990Z,98794.88
2023-05-05T23:55:40.052Z,98797.56
2023-05-05T23:58:06.585Z,98795.00
